Time;durP1;ratioP1;P1;durP2;ratioP2;P2;SDS_P1;SDS_P2;PMS_P1;PMS_P2;Temp;Humidity;BMP_temperature;BMP_pressure;BME280_temperature;BME280_humidity;BME280_pressure;Samples;Min_cycle;Max_cycle;Signal;HPM_P1;HPM_P2
2023/10/16 00:02:13;;;;;;;33.55;3.28;;;1.30;99.90;;;;;;4998628;28;20022;-60
2023/10/16 00:04:43;;;;;;;6.38;3.05;;;1.30;99.90;;;;;;5003540;28;20381;-59
2023/10/16 00:07:13;;;;;;;14.00;2.80;;;1.30;99.90;;;;;;5002866;28;20026;-60
2023/10/16 00:09:43;;;;;;;11.10;3.10;;;1.40;99.90;;;;;;4998576;28;20498;-60
2023/10/16 00:12:09;;;;;;;55.53;4.00;;;1.40;99.90;;;;;;4999167;28;20080;-61
2023/10/16 00:14:35;;;;;;;19.05;3.40;;;1.30;99.90;;;;;;5004189;28;20014;-60
2023/10/16 00:17:08;;;;;;;55.72;4.22;;;1.30;99.90;;;;;;5000813;28;20401;-60
2023/10/16 00:19:39;;;;;;;8.13;2.65;;;1.30;99.90;;;;;;4997702;28;20561;-60
2023/10/16 00:22:15;;;;;;;12.15;3.08;;;1.30;99.90;;;;;;4998058;28;20469;-59
2023/10/16 00:24:48;;;;;;;9.35;3.53;;;1.30;99.90;;;;;;5000917;28;20042;-60
2023/10/16 00:27:16;;;;;;;12.88;3.25;;;1.40;99.90;;;;;;4997673;28;20432;-60
2023/10/16 00:29:45;;;;;;;4.32;2.75;;;1.40;99.90;;;;;;4996957;28;20439;-58
2023/10/16 00:32:11;;;;;;;7.68;4.68;;;1.40;99.90;;;;;;5001232;28;20528;-60
2023/10/16 00:34:38;;;;;;;36.50;6.05;;;1.50;99.90;;;;;;4998826;28;20066;-59
2023/10/16 00:37:04;;;;;;;43.67;6.88;;;1.60;99.90;;;;;;5001163;28;20405;-61
2023/10/16 00:39:32;;;;;;;83.60;6.85;;;1.70;99.90;;;;;;4999020;28;20038;-58
2023/10/16 00:41:58;;;;;;;44.58;4.75;;;1.70;99.90;;;;;;4996683;28;20026;-60
2023/10/16 00:44:28;;;;;;;60.50;4.35;;;1.70;99.90;;;;;;5001678;28;20116;-60
2023/10/16 00:47:05;;;;;;;44.30;4.50;;;1.60;99.90;;;;;;5000275;28;20030;-60
2023/10/16 00:49:34;;;;;;;67.90;5.22;;;1.40;99.90;;;;;;4998117;28;20056;-59
2023/10/16 00:52:03;;;;;;;52.33;5.03;;;1.40;99.90;;;;;;5000511;28;20517;-60
2023/10/16 00:54:33;;;;;;;59.83;4.10;;;1.20;99.90;;;;;;4995510;28;20498;-59
2023/10/16 00:57:00;;;;;;;71.68;5.40;;;1.20;99.90;;;;;;4999970;28;20025;-60
2023/10/16 00:59:29;;;;;;;155.85;6.15;;;1.10;99.90;;;;;;5003821;28;20038;-60
2023/10/16 01:04:43;;;;;;;51.45;3.72;;;1.00;99.90;;;;;;4998704;28;20030;-60
2023/10/16 01:07:09;;;;;;;69.38;4.28;;;1.00;99.90;;;;;;5000353;28;20027;-59
2023/10/16 01:09:35;;;;;;;110.93;5.22;;;1.00;99.90;;;;;;4999618;28;20031;-59
2023/10/16 01:12:11;;;;;;;71.20;4.53;;;0.90;99.90;;;;;;5001291;28;20019;-60
2023/10/16 01:14:38;;;;;;;152.52;6.40;;;0.90;99.90;;;;;;4999816;28;20029;-60
2023/10/16 01:17:08;;;;;;;51.55;4.03;;;0.90;99.90;;;;;;4999931;28;20485;-60
2023/10/16 01:19:36;;;;;;;84.90;4.70;;;0.80;99.90;;;;;;4992988;28;20903;-60
2023/10/16 01:22:02;;;;;;;38.65;3.88;;;0.80;99.90;;;;;;4998894;28;20044;-59
2023/10/16 01:24:29;;;;;;;27.30;3.13;;;0.80;99.90;;;;;;4998502;28;20081;-60
2023/10/16 01:27:06;;;;;;;16.10;3.47;;;0.80;99.90;;;;;;4999019;28;20025;-60
2023/10/16 01:29:33;;;;;;;23.67;3.75;;;0.90;99.90;;;;;;4998442;28;20038;-59
2023/10/16 01:31:59;;;;;;;29.23;3.55;;;0.90;99.90;;;;;;4996013;28;20041;-61
2023/10/16 01:34:25;;;;;;;17.25;3.60;;;0.90;99.90;;;;;;5000096;28;20034;-60
2023/10/16 01:36:51;;;;;;;73.85;5.00;;;1.00;99.90;;;;;;4997531;28;20048;-60
2023/10/16 01:42:03;;;;;;;70.75;4.80;;;1.00;99.90;;;;;;4999748;28;20033;-59
2023/10/16 01:44:29;;;;;;;46.25;3.80;;;1.10;99.90;;;;;;5000741;28;20049;-60
2023/10/16 01:46:55;;;;;;;53.70;6.10;;;1.10;99.90;;;;;;5000735;28;20060;-60
2023/10/16 01:49:27;;;;;;;93.90;8.05;;;1.20;99.90;;;;;;4996625;28;20098;-60
2023/10/16 01:51:53;;;;;;;94.60;8.82;;;1.20;99.90;;;;;;4997164;28;20027;-59
2023/10/16 01:54:22;;;;;;;76.55;7.93;;;1.30;99.90;;;;;;4999461;28;20040;-59
2023/10/16 01:56:49;;;;;;;42.90;6.90;;;1.40;99.90;;;;;;4999233;28;20026;-59
2023/10/16 01:59:15;;;;;;;98.35;8.35;;;1.50;99.90;;;;;;4998694;28;20022;-61
2023/10/16 02:01:41;;;;;;;30.80;5.80;;;1.50;99.90;;;;;;4998200;28;20035;-60
2023/10/16 02:04:07;;;;;;;17.98;5.93;;;1.60;99.90;;;;;;5000634;28;20049;-59
2023/10/16 02:06:33;;;;;;;28.08;6.15;;;1.60;99.90;;;;;;4997881;28;20057;-61
2023/10/16 02:08:59;;;;;;;58.25;7.30;;;1.70;99.90;;;;;;4999559;28;20021;-60
2023/10/16 02:11:25;;;;;;;131.05;7.43;;;1.70;99.90;;;;;;4997747;28;20034;-59
2023/10/16 02:13:51;;;;;;;128.15;6.78;;;1.70;99.90;;;;;;4996534;28;20100;-61
2023/10/16 02:16:18;;;;;;;150.48;8.65;;;1.50;99.90;;;;;;4998252;28;20034;-60
2023/10/16 02:18:45;;;;;;;154.52;7.43;;;1.50;99.90;;;;;;4997680;28;20445;-61
2023/10/16 02:21:13;;;;;;;119.13;7.10;;;1.40;99.90;;;;;;4999828;28;20017;-60
2023/10/16 02:23:39;;;;;;;130.05;8.05;;;1.30;99.90;;;;;;4997690;28;20027;-60
2023/10/16 02:26:06;;;;;;;94.90;7.22;;;1.30;99.90;;;;;;4997844;28;20036;-59
2023/10/16 02:28:35;;;;;;;172.43;10.25;;;1.30;99.90;;;;;;4998836;28;20081;-60
2023/10/16 02:31:13;;;;;;;146.52;8.70;;;1.20;99.90;;;;;;4997432;28;20612;-60
2023/10/16 02:33:44;;;;;;;144.93;9.30;;;1.30;99.90;;;;;;4999418;28;20385;-61
2023/10/16 02:36:09;;;;;;;204.15;9.52;;;1.30;99.90;;;;;;4999068;28;20025;-60
2023/10/16 02:38:35;;;;;;;163.35;9.10;;;1.30;99.90;;;;;;4998833;28;20018;-60
2023/10/16 02:41:03;;;;;;;146.52;8.50;;;1.30;99.90;;;;;;4996223;28;20466;-59
2023/10/16 02:43:33;;;;;;;183.25;9.52;;;1.20;99.90;;;;;;4995753;28;20486;-60
2023/10/16 02:46:01;;;;;;;137.60;8.38;;;1.20;99.90;;;;;;4997730;28;20026;-59
2023/10/16 02:48:27;;;;;;;137.52;8.38;;;1.20;99.90;;;;;;4995015;28;20033;-59
2023/10/16 02:50:59;;;;;;;189.40;9.65;;;1.20;99.90;;;;;;4997910;28;20429;-59
2023/10/16 02:53:27;;;;;;;221.55;10.55;;;1.20;99.90;;;;;;4995740;28;20521;-58
2023/10/16 02:55:57;;;;;;;151.32;7.97;;;1.20;99.90;;;;;;4997267;28;20034;-60
2023/10/16 02:58:24;;;;;;;132.68;7.85;;;1.10;99.90;;;;;;4999065;28;20101;-60
2023/10/16 03:00:55;;;;;;;153.90;7.85;;;1.10;99.90;;;;;;4998687;28;20567;-60
2023/10/16 03:03:24;;;;;;;175.80;8.75;;;1.00;99.90;;;;;;4998292;28;20049;-59
2023/10/16 03:05:50;;;;;;;184.75;10.02;;;1.00;99.90;;;;;;4996258;28;20026;-59
2023/10/16 03:08:19;;;;;;;153.10;8.77;;;1.00;99.90;;;;;;5000898;28;20413;-60
2023/10/16 03:10:45;;;;;;;267.08;12.40;;;0.90;99.90;;;;;;4994643;28;20033;-60
2023/10/16 03:13:14;;;;;;;282.65;13.23;;;0.90;99.90;;;;;;4997133;28;20031;-61
2023/10/16 03:15:46;;;;;;;231.23;10.90;;;0.90;99.90;;;;;;4999193;28;20081;-59
2023/10/16 03:18:17;;;;;;;127.35;8.05;;;0.90;99.90;;;;;;4998439;28;20148;-60
2023/10/16 03:20:47;;;;;;;48.53;6.07;;;0.90;99.90;;;;;;4997136;28;20034;-58
2023/10/16 03:23:18;;;;;;;90.78;7.07;;;0.90;99.90;;;;;;5002396;28;20022;-59
2023/10/16 03:28:11;;;;;;;92.00;7.93;;;1.00;99.90;;;;;;5000499;28;20015;-60
2023/10/16 03:30:37;;;;;;;127.63;8.00;;;1.10;99.90;;;;;;5001095;28;20030;-61
2023/10/16 03:33:07;;;;;;;173.10;9.90;;;1.10;99.90;;;;;;5001914;28;20038;-60
2023/10/16 03:35:34;;;;;;;207.07;11.60;;;1.10;99.90;;;;;;5000840;28;20157;-61
2023/10/16 03:38:08;;;;;;;181.25;9.23;;;1.10;99.90;;;;;;5001521;28;20076;-60
2023/10/16 03:40:34;;;;;;;166.70;9.65;;;1.10;99.90;;;;;;5000693;28;20049;-59
2023/10/16 03:42:59;;;;;;;181.52;9.20;;;1.10;99.90;;;;;;5000237;28;20060;-60
2023/10/16 03:45:26;;;;;;;131.27;7.85;;;1.10;99.90;;;;;;5001054;28;20045;-59
2023/10/16 03:48:00;;;;;;;228.00;9.90;;;1.10;99.90;;;;;;4997839;28;20682;-61
2023/10/16 03:50:34;;;;;;;231.45;10.57;;;1.10;99.90;;;;;;4999685;28;20132;-60
2023/10/16 03:53:02;;;;;;;179.68;7.88;;;1.10;99.90;;;;;;4999652;28;20030;-59
2023/10/16 03:55:31;;;;;;;168.00;7.40;;;1.10;99.90;;;;;;5000942;28;20038;-60
2023/10/16 03:57:57;;;;;;;156.02;7.25;;;1.10;99.90;;;;;;4999530;28;20029;-59
2023/10/16 04:00:26;;;;;;;153.93;7.07;;;1.00;99.90;;;;;;5002068;28;20042;-60
2023/10/16 04:02:52;;;;;;;177.93;7.20;;;0.90;99.90;;;;;;4999035;28;20406;-60
2023/10/16 04:06:00;;;;;;;125.70;5.88;;;0.90;99.90;;;;;;5000143;28;20041;-60
2023/10/16 04:08:09;;;;;;;126.30;6.00;;;0.90;99.90;;;;;;4999113;28;20030;-61
2023/10/16 04:10:35;;;;;;;99.80;6.35;;;0.80;99.90;;;;;;4995579;28;20030;-60
2023/10/16 04:13:01;;;;;;;134.38;6.03;;;0.80;99.90;;;;;;5001897;28;20081;-59
2023/10/16 04:20:56;;;;;;;107.63;5.72;;;0.70;99.90;;;;;;4999346;28;20038;-60
2023/10/16 04:23:52;;;;;;;88.53;5.35;;;0.70;99.90;;;;;;5000874;28;20302;-60
2023/10/16 04:31:44;;;;;;;113.07;6.25;;;0.70;99.90;;;;;;5001538;28;20034;-61
2023/10/16 04:47:48;;;;;;;60.28;5.07;;;0.70;99.90;;;;;;4998563;28;20019;-60
2023/10/16 04:50:15;;;;;;;75.55;3.95;;;0.70;99.90;;;;;;4998670;28;20100;-62
2023/10/16 05:03:35;;;;;;;103.35;6.28;;;0.70;99.90;;;;;;4997668;28;20510;-62
2023/10/16 05:06:38;;;;;;;106.28;6.35;;;0.70;99.90;;;;;;4999716;28;20088;-63
2023/10/16 05:10:12;;;;;;;96.78;5.88;;;0.70;99.90;;;;;;5000262;28;20751;-63
2023/10/16 05:15:37;;;;;;;66.50;4.47;;;0.70;99.90;;;;;;4967260;28;20019;-62
2023/10/16 05:18:12;;;;;;;87.35;6.30;;;0.70;99.90;;;;;;4999399;28;20097;-62
2023/10/16 05:21:16;;;;;;;69.57;5.70;;;0.70;99.90;;;;;;4998094;28;20034;-62
2023/10/16 06:15:59;;;;;;;53.22;7.50;;;0.90;99.90;;;;;;4998802;28;20127;-62
2023/10/16 06:18:27;;;;;;;43.80;6.82;;;1.00;99.90;;;;;;4997620;28;20034;-62
2023/10/16 06:20:53;;;;;;;13.13;6.97;;;1.00;99.90;;;;;;4995810;28;20054;-62
2023/10/16 06:23:19;;;;;;;34.72;7.60;;;1.10;99.90;;;;;;4994832;28;20034;-62
2023/10/16 06:25:47;;;;;;;11.80;7.53;;;1.10;99.90;;;;;;4997651;28;20126;-60
2023/10/16 06:28:15;;;;;;;10.50;6.55;;;1.10;99.90;;;;;;4997113;28;20038;-62
2023/10/16 06:30:41;;;;;;;8.45;6.13;;;1.20;99.90;;;;;;4995143;28;20166;-62
2023/10/16 06:33:07;;;;;;;8.95;6.07;;;1.20;99.90;;;;;;4998203;28;20022;-60
2023/10/16 06:35:33;;;;;;;10.13;6.88;;;1.30;99.90;;;;;;5000458;28;20030;-59
2023/10/16 06:38:00;;;;;;;32.25;6.78;;;1.40;99.90;;;;;;4998216;28;20038;-61
2023/10/16 06:40:26;;;;;;;19.83;6.32;;;1.40;99.90;;;;;;4997021;28;20050;-59
2023/10/16 06:43:14;;;;;;;16.90;7.25;;;1.50;99.90;;;;;;5000238;28;20037;-60
2023/10/16 06:45:41;;;;;;;27.40;6.88;;;1.50;99.90;;;;;;4997899;28;20030;-62
2023/10/16 06:48:08;;;;;;;10.98;6.57;;;1.60;99.90;;;;;;4996984;28;20022;-61
2023/10/16 06:50:41;;;;;;;7.80;6.45;;;1.70;99.90;;;;;;5000193;28;20029;-63
2023/10/16 06:53:07;;;;;;;8.75;6.63;;;1.70;99.90;;;;;;4999270;28;20034;-62
2023/10/16 06:55:33;;;;;;;12.82;5.43;;;1.80;99.90;;;;;;5000956;28;20044;-63
2023/10/16 06:57:59;;;;;;;22.50;6.45;;;1.80;99.90;;;;;;4999107;28;20031;-62
2023/10/16 07:00:27;;;;;;;13.52;6.00;;;1.80;99.90;;;;;;4996723;28;20050;-62
2023/10/16 07:02:56;;;;;;;7.55;6.28;;;1.90;99.90;;;;;;4999557;28;20030;-62
2023/10/16 07:05:23;;;;;;;8.15;6.53;;;1.90;99.90;;;;;;4999592;28;20125;-62
2023/10/16 07:07:53;;;;;;;10.27;6.32;;;1.80;99.90;;;;;;4999557;28;20037;-62
2023/10/16 07:10:19;;;;;;;9.73;7.87;;;1.80;99.90;;;;;;5000578;28;20125;-62
2023/10/16 07:13:00;;;;;;;13.88;7.82;;;1.90;99.90;;;;;;4998450;28;20121;-62
2023/10/16 07:15:29;;;;;;;15.40;9.07;;;1.90;99.90;;;;;;4998623;28;20038;-62
2023/10/16 07:17:55;;;;;;;15.60;10.43;;;1.90;99.90;;;;;;4995660;28;20031;-62
2023/10/16 07:20:28;;;;;;;19.50;9.77;;;2.00;99.90;;;;;;4998657;28;20495;-62
2023/10/16 07:22:59;;;;;;;12.98;8.55;;;2.10;99.90;;;;;;5000485;28;20034;-63
2023/10/16 07:28:12;;;;;;;11.40;8.18;;;2.30;99.90;;;;;;4998859;28;20041;-62
2023/10/16 07:30:42;;;;;;;10.60;8.27;;;2.40;99.90;;;;;;4997726;28;20113;-62
2023/10/16 07:33:14;;;;;;;10.77;7.50;;;2.50;99.90;;;;;;4998254;28;20042;-61
2023/10/16 07:35:46;;;;;;;15.70;7.63;;;2.60;99.90;;;;;;4998644;28;20027;-63
2023/10/16 07:38:13;;;;;;;10.52;8.38;;;2.60;99.90;;;;;;4998481;28;20018;-62
2023/10/16 07:40:39;;;;;;;12.02;7.25;;;2.70;99.90;;;;;;4998315;28;20042;-63
2023/10/16 07:43:08;;;;;;;11.25;8.27;;;2.80;99.90;;;;;;4999569;28;20030;-62
2023/10/16 07:45:33;;;;;;;10.52;7.75;;;2.90;99.90;;;;;;4998291;28;20590;-63
2023/10/16 07:48:17;;;;;;;14.13;8.23;;;3.00;99.90;;;;;;4999918;28;20113;-63
2023/10/16 07:50:43;;;;;;;9.52;7.57;;;3.00;99.90;;;;;;4999494;28;20030;-61
2023/10/16 07:53:09;;;;;;;13.88;7.55;;;3.00;99.90;;;;;;4996123;28;20038;-63
2023/10/16 07:55:42;;;;;;;9.60;7.38;;;3.10;99.90;;;;;;4997389;28;20062;-63
2023/10/16 07:58:17;;;;;;;10.43;8.60;;;3.20;99.90;;;;;;4998803;28;20521;-62
2023/10/16 08:00:56;;;;;;;12.70;7.80;;;3.30;99.90;;;;;;4998471;28;20120;-60
2023/10/16 08:03:22;;;;;;;18.00;7.20;;;3.40;99.90;;;;;;4998961;28;20061;-62
2023/10/16 08:05:48;;;;;;;17.13;6.28;;;3.50;99.90;;;;;;4997271;28;20482;-63
2023/10/16 08:08:15;;;;;;;12.82;6.55;;;3.50;99.90;;;;;;4997171;28;20034;-63
2023/10/16 08:10:44;;;;;;;23.05;6.60;;;3.60;99.90;;;;;;5002035;28;20026;-62
2023/10/16 08:13:13;;;;;;;9.90;6.05;;;3.50;99.90;;;;;;5003050;28;20121;-62
2023/10/16 08:15:46;;;;;;;17.83;7.60;;;3.50;99.90;;;;;;5000622;28;20113;-63
2023/10/16 08:18:13;;;;;;;21.10;6.55;;;3.60;99.90;;;;;;5003539;28;20022;-63
2023/10/16 08:21:00;;;;;;;22.52;6.18;;;3.60;99.90;;;;;;5004222;28;20029;-62
2023/10/16 08:23:33;;;;;;;10.43;6.25;;;3.50;99.90;;;;;;5003307;28;20050;-62
2023/10/16 08:26:14;;;;;;;14.98;7.25;;;3.60;99.90;;;;;;5001503;28;20030;-62
2023/10/16 08:28:50;;;;;;;9.63;5.78;;;3.80;99.90;;;;;;5001253;28;20129;-63
2023/10/16 08:31:24;;;;;;;7.38;5.65;;;3.80;99.90;;;;;;5002296;28;20380;-62
2023/10/16 08:33:57;;;;;;;12.18;6.40;;;3.80;99.90;;;;;;5002815;28;20034;-63
2023/10/16 08:36:24;;;;;;;9.07;7.45;;;3.90;99.90;;;;;;5000382;28;20123;-62
2023/10/16 08:38:54;;;;;;;9.77;6.43;;;4.00;99.90;;;;;;5003328;28;20034;-63
2023/10/16 08:41:42;;;;;;;9.55;7.88;;;4.10;99.90;;;;;;5002510;28;20056;-62
2023/10/16 08:44:15;;;;;;;11.57;7.30;;;4.20;99.90;;;;;;5001699;28;20105;-63
2023/10/16 08:49:22;;;;;;;;;;;4.30;99.90;;;;;;5001487;28;20033;-63
2023/10/16 08:52:03;;;;;;;8.60;6.60;;;4.40;99.90;;;;;;5000942;28;19960;-62
2023/10/16 08:57:16;;;;;;;9.73;6.55;;;4.50;99.90;;;;;;4999302;28;20569;-63
2023/10/16 08:59:51;;;;;;;8.20;6.15;;;4.50;99.90;;;;;;4999684;28;20038;-62
2023/10/16 09:02:19;;;;;;;9.18;6.32;;;4.40;99.90;;;;;;5003672;28;20579;-62
2023/10/16 09:04:49;;;;;;;11.77;7.97;;;4.50;99.90;;;;;;5001080;28;20470;-62
2023/10/16 09:07:19;;;;;;;11.75;6.82;;;4.40;99.90;;;;;;5002088;28;20018;-62
2023/10/16 09:09:48;;;;;;;15.45;7.10;;;4.40;99.90;;;;;;5002099;28;20022;-62
2023/10/16 09:12:24;;;;;;;14.77;7.28;;;4.40;99.90;;;;;;5001277;28;20048;-62
2023/10/16 09:14:50;;;;;;;8.82;7.03;;;4.50;99.90;;;;;;5002918;28;20105;-62
2023/10/16 09:17:19;;;;;;;9.68;7.32;;;4.50;99.90;;;;;;5001453;28;20037;-63
2023/10/16 09:19:48;;;;;;;9.23;6.90;;;4.50;99.90;;;;;;4996793;28;20683;-61
2023/10/16 09:22:15;;;;;;;8.15;6.70;;;4.50;99.90;;;;;;5000507;28;20061;-62
2023/10/16 09:24:45;;;;;;;7.80;6.70;;;4.60;99.90;;;;;;5000055;28;20037;-64
2023/10/16 09:27:18;;;;;;;10.88;7.05;;;4.70;99.90;;;;;;5000505;28;20022;-63
2023/10/16 09:29:53;;;;;;;7.35;6.15;;;4.70;99.90;;;;;;4999079;28;20026;-63
2023/10/16 09:32:27;;;;;;;8.65;6.88;;;4.70;99.90;;;;;;5000458;28;20041;-62
2023/10/16 09:34:53;;;;;;;8.57;6.88;;;4.70;99.90;;;;;;4999622;28;20521;-62
2023/10/16 09:37:24;;;;;;;9.18;7.35;;;4.80;99.90;;;;;;4998571;28;20065;-63
2023/10/16 09:39:52;;;;;;;9.13;7.13;;;4.80;99.90;;;;;;5001580;28;20484;-63
2023/10/16 09:42:24;;;;;;;9.93;6.90;;;4.90;99.90;;;;;;4998099;28;20045;-62
2023/10/16 09:44:59;;;;;;;10.35;6.90;;;5.10;99.90;;;;;;4999959;28;20028;-62
2023/10/16 09:47:26;;;;;;;7.60;6.65;;;5.20;99.90;;;;;;5000232;28;20069;-62
2023/10/16 09:49:59;;;;;;;8.00;6.55;;;5.30;99.90;;;;;;4998731;28;20092;-63
2023/10/16 09:52:30;;;;;;;8.18;7.38;;;5.40;99.90;;;;;;5000304;28;20026;-62
2023/10/16 09:54:59;;;;;;;8.07;6.30;;;5.50;99.90;;;;;;4998882;28;20034;-62
2023/10/16 09:57:30;;;;;;;6.63;5.97;;;5.70;99.90;;;;;;5001697;28;20741;-61
2023/10/16 10:00:07;;;;;;;9.38;6.20;;;5.70;99.90;;;;;;5000514;28;20018;-63
2023/10/16 10:02:39;;;;;;;6.95;6.22;;;5.80;99.90;;;;;;4999597;28;20030;-63
2023/10/16 10:05:09;;;;;;;7.95;7.15;;;5.90;99.90;;;;;;5001035;28;20026;-62
2023/10/16 10:07:46;;;;;;;8.83;6.53;;;6.00;99.90;;;;;;4999625;28;20084;-62
2023/10/16 10:13:15;;;;;;;7.63;6.68;;;6.10;99.90;;;;;;4999212;28;20636;-63
2023/10/16 10:15:57;;;;;;;8.43;7.22;;;6.00;99.90;;;;;;4998580;28;20152;-63
2023/10/16 10:18:42;;;;;;;7.82;7.03;;;6.00;99.90;;;;;;5001011;28;20038;-62
2023/10/16 10:21:18;;;;;;;9.27;7.03;;;5.90;99.90;;;;;;5000846;28;20517;-63
2023/10/16 10:23:45;;;;;;;9.73;7.13;;;6.00;99.90;;;;;;5002469;28;20033;-61
2023/10/16 10:26:17;;;;;;;7.90;7.10;;;6.00;99.90;;;;;;4998815;28;20042;-62
2023/10/16 10:28:45;;;;;;;;;;;6.00;99.90;;;;;;5000883;28;20026;-62
2023/10/16 10:31:12;;;;;;;7.80;7.10;;;6.10;99.90;;;;;;5001368;28;20353;-63
2023/10/16 10:33:51;;;;;;;7.88;7.07;;;6.30;99.90;;;;;;4998553;28;20449;-63
2023/10/16 10:36:34;;;;;;;7.35;6.65;;;6.50;99.90;;;;;;4997997;28;20594;-63
2023/10/16 10:39:21;;;;;;;7.78;6.82;;;6.60;99.90;;;;;;4999163;28;20034;-62
2023/10/16 10:41:53;;;;;;;7.53;6.82;;;6.80;99.90;;;;;;4998745;28;20073;-63
2023/10/16 10:44:29;;;;;;;7.95;7.05;;;6.90;99.90;;;;;;5001030;28;20030;-63
2023/10/16 10:46:55;;;;;;;7.43;6.72;;;6.90;99.90;;;;;;4996641;28;20030;-63
2023/10/16 10:49:34;;;;;;;8.65;7.65;;;6.90;99.90;;;;;;4996629;28;20041;-63
2023/10/16 10:52:02;;;;;;;7.13;6.43;;;6.80;99.90;;;;;;4999287;28;20030;-63
2023/10/16 10:54:28;;;;;;;8.88;7.10;;;6.80;99.90;;;;;;4995748;28;20749;-63
2023/10/16 10:56:59;;;;;;;7.18;6.47;;;6.90;99.90;;;;;;4997250;28;20376;-62
2023/10/16 10:59:39;;;;;;;7.30;6.60;;;7.00;99.90;;;;;;4997249;28;20049;-63
2023/10/16 11:02:20;;;;;;;7.88;7.07;;;7.00;99.90;;;;;;4997401;28;20068;-62
2023/10/16 11:04:54;;;;;;;12.05;6.15;;;7.10;99.90;;;;;;4995236;28;20417;-62
2023/10/16 11:07:45;;;;;;;7.32;6.72;;;7.30;99.90;;;;;;4997455;28;20161;-62
2023/10/16 11:10:13;;;;;;;7.65;6.95;;;7.40;99.90;;;;;;4997309;28;20050;-62
2023/10/16 11:12:39;;;;;;;6.85;6.05;;;7.60;99.90;;;;;;4999774;28;20053;-63
2023/10/16 11:15:15;;;;;;;8.48;6.55;;;7.70;99.90;;;;;;4995717;28;20026;-62
2023/10/16 11:17:40;;;;;;;9.20;6.82;;;7.70;99.90;;;;;;4997566;28;20030;-61
2023/10/16 11:20:27;;;;;;;8.48;6.32;;;7.60;99.90;;;;;;4997146;28;20022;-61
2023/10/16 11:23:00;;;;;;;6.93;6.32;;;7.60;99.90;;;;;;4996752;28;20496;-62
2023/10/16 11:25:29;;;;;;;11.27;6.13;;;7.60;99.90;;;;;;4998722;28;20038;-62
2023/10/16 11:27:57;;;;;;;7.07;6.38;;;7.50;99.90;;;;;;4998912;28;20030;-62
2023/10/16 11:30:26;;;;;;;8.50;7.25;;;7.50;99.90;;;;;;4997961;28;20031;-63
2023/10/16 11:32:55;;;;;;;6.95;6.25;;;7.70;99.90;;;;;;4997923;28;20019;-62
2023/10/16 11:35:26;;;;;;;6.43;5.80;;;7.90;99.90;;;;;;4992254;28;20490;-63
2023/10/16 11:37:59;;;;;;;6.47;4.93;;;8.10;99.90;;;;;;4994304;28;20040;-63
2023/10/16 11:40:33;;;;;;;5.63;5.05;;;8.30;99.90;;;;;;4996856;28;20042;-63
2023/10/16 11:43:00;;;;;;;6.72;5.10;;;8.50;99.90;;;;;;4995872;28;20493;-64
2023/10/16 11:45:30;;;;;;;6.70;6.10;;;8.90;99.90;;;;;;4999796;28;20056;-63
2023/10/16 11:50:41;;;;;;;12.10;5.30;;;9.10;99.90;;;;;;4998938;28;20052;-62
2023/10/16 11:53:07;;;;;;;6.03;5.00;;;9.00;99.90;;;;;;4999656;28;20443;-62
2023/10/16 11:55:37;;;;;;;6.90;4.80;;;9.00;99.90;;;;;;5003131;28;20037;-63
2023/10/16 11:58:06;;;;;;;5.28;4.80;;;9.10;99.90;;;;;;4998076;28;20078;-61
2023/10/16 12:00:35;;;;;;;5.93;5.43;;;9.20;99.90;;;;;;4999268;28;20050;-61
2023/10/16 12:03:07;;;;;;;6.25;4.60;;;9.30;99.90;;;;;;5002446;28;20409;-60
2023/10/16 12:05:36;;;;;;;5.15;4.50;;;9.50;99.90;;;;;;4999283;28;20057;-61
2023/10/16 12:08:02;;;;;;;7.10;5.07;;;9.70;99.90;;;;;;5003798;28;20026;-61
2023/10/16 12:10:29;;;;;;;4.32;4.00;;;9.80;99.90;;;;;;4998318;28;20038;-61
2023/10/16 12:12:55;;;;;;;5.38;4.72;;;9.90;99.90;;;;;;5000753;28;20035;-61
2023/10/16 12:15:24;;;;;;;4.63;4.22;;;9.70;99.90;;;;;;5002694;28;20037;-61
2023/10/16 12:17:49;;;;;;;5.35;4.85;;;9.60;99.90;;;;;;5002172;28;20436;-60
2023/10/16 12:20:16;;;;;;;13.30;5.22;;;9.50;99.90;;;;;;5005937;28;20026;-61
2023/10/16 12:22:44;;;;;;;5.63;4.18;;;9.40;99.90;;;;;;5003355;28;20505;-64
2023/10/16 12:25:10;;;;;;;5.65;3.60;;;9.40;99.90;;;;;;5002198;28;20096;-60
2023/10/16 12:27:39;;;;;;;6.30;5.03;;;9.40;99.90;;;;;;4999161;28;20022;-61
2023/10/16 12:30:06;;;;;;;5.57;4.22;;;9.50;99.90;;;;;;4999542;28;20025;-61
2023/10/16 12:32:32;;;;;;;6.82;4.28;;;9.60;99.90;;;;;;5000122;28;20030;-61
2023/10/16 12:35:00;;;;;;;4.43;4.03;;;9.70;99.90;;;;;;4999101;28;20134;-61
2023/10/16 12:37:27;;;;;;;6.20;4.53;;;9.80;99.90;;;;;;5000490;28;20850;-59
2023/10/16 12:39:55;;;;;;;6.35;4.88;;;9.90;99.90;;;;;;5001467;28;20411;-61
2023/10/16 12:42:21;;;;;;;4.95;4.28;;;9.80;99.90;;;;;;4998858;28;20034;-60
2023/10/16 12:44:47;;;;;;;4.70;4.30;;;9.70;99.90;;;;;;4998341;28;20025;-59
2023/10/16 12:47:15;;;;;;;4.72;3.35;;;9.80;99.90;;;;;;5001269;28;20026;-61
2023/10/16 12:49:41;;;;;;;4.15;3.38;;;9.90;99.90;;;;;;4998976;28;20042;-60
2023/10/16 12:52:07;;;;;;;6.32;3.05;;;9.90;99.90;;;;;;4997794;28;20080;-61
2023/10/16 12:54:32;;;;;;;3.35;2.95;;;10.00;99.90;;;;;;4995805;28;20050;-61
2023/10/16 12:56:59;;;;;;;3.83;3.40;;;10.10;99.90;;;;;;4999375;28;20381;-61
2023/10/16 12:59:27;;;;;;;3.38;3.08;;;10.10;99.90;;;;;;5000416;28;20500;-61
2023/10/16 13:01:53;;;;;;;3.60;2.38;;;10.10;99.90;;;;;;4995547;28;20029;-61
2023/10/16 13:04:19;;;;;;;4.55;2.40;;;10.10;99.90;;;;;;4993759;28;20557;-61
2023/10/16 13:06:45;;;;;;;2.65;2.20;;;10.20;99.90;;;;;;4999025;28;20014;-61
2023/10/16 13:09:15;;;;;;;4.43;2.70;;;10.20;99.90;;;;;;4995729;28;20150;-60
2023/10/16 13:11:41;;;;;;;6.27;1.80;;;10.20;99.90;;;;;;4997975;28;20022;-61
2023/10/16 13:14:07;;;;;;;3.30;2.03;;;10.20;99.90;;;;;;4995931;28;20073;-61
2023/10/16 13:16:33;;;;;;;2.88;1.40;;;10.30;99.90;;;;;;4995476;28;20460;-60
2023/10/16 13:18:59;;;;;;;2.22;1.40;;;10.40;99.90;;;;;;4998303;28;20030;-61
2023/10/16 13:21:37;;;;;;;1.40;1.30;;;10.40;99.90;;;;;;4997327;28;20030;-60
2023/10/16 13:24:11;;;;;;;1.85;1.60;;;10.50;99.90;;;;;;4996857;28;20363;-60
2023/10/16 13:26:37;;;;;;;3.17;1.30;;;10.50;99.90;;;;;;4998195;28;20110;-60
2023/10/16 13:29:08;;;;;;;2.55;1.40;;;10.50;99.90;;;;;;4999315;28;20197;-60
2023/10/16 13:31:36;;;;;;;3.92;1.42;;;10.50;99.90;;;;;;4998028;28;20038;-61
2023/10/16 13:34:03;;;;;;;3.40;1.30;;;10.60;99.90;;;;;;4998221;28;20037;-61
2023/10/16 13:36:34;;;;;;;2.08;1.20;;;10.70;99.90;;;;;;4996458;28;20030;-61
2023/10/16 13:39:00;;;;;;;2.13;1.00;;;10.80;99.90;;;;;;4998067;28;20029;-61
2023/10/16 13:41:28;;;;;;;1.83;0.82;;;10.90;99.90;;;;;;4998091;28;20030;-59
2023/10/16 13:43:55;;;;;;;1.35;0.70;;;11.00;99.90;;;;;;4992072;28;20045;-59
2023/10/16 13:46:20;;;;;;;1.48;0.98;;;11.00;99.90;;;;;;4998302;28;20117;-60
2023/10/16 13:48:47;;;;;;;1.05;0.82;;;11.10;99.90;;;;;;4995005;28;20113;-58
2023/10/16 13:51:16;;;;;;;3.03;0.90;;;11.10;99.90;;;;;;4998057;28;20050;-61
2023/10/16 13:53:43;;;;;;;2.17;0.90;;;11.10;99.90;;;;;;4994089;28;20042;-60
2023/10/16 13:56:11;;;;;;;1.45;0.73;;;11.20;99.90;;;;;;4996386;28;20027;-60
2023/10/16 13:58:36;;;;;;;1.88;0.77;;;11.20;99.90;;;;;;5001705;28;20414;-60
2023/10/16 14:01:02;;;;;;;1.88;0.63;;;11.30;99.90;;;;;;4997163;28;20054;-60
2023/10/16 14:03:29;;;;;;;2.90;0.60;;;11.30;99.90;;;;;;4996229;28;20109;-61
2023/10/16 14:05:55;;;;;;;5.25;0.88;;;11.40;99.90;;;;;;4999259;28;20030;-60
2023/10/16 14:08:30;;;;;;;1.58;0.65;;;11.20;99.90;;;;;;5000569;28;20069;-61
2023/10/16 14:11:00;;;;;;;2.28;0.60;;;11.20;99.90;;;;;;4999174;28;20688;-61
2023/10/16 14:13:27;;;;;;;3.17;0.75;;;11.20;99.90;;;;;;4996996;28;20042;-60
2023/10/16 14:15:58;;;;;;;3.40;0.90;;;11.30;99.90;;;;;;4996544;28;20049;-61
2023/10/16 14:18:26;;;;;;;2.65;1.05;;;11.50;99.90;;;;;;4997625;28;20378;-61
2023/10/16 14:20:53;;;;;;;1.77;0.80;;;11.60;99.90;;;;;;4994764;28;20026;-62
2023/10/16 14:23:19;;;;;;;1.33;0.80;;;11.80;99.90;;;;;;5000077;28;20038;-61
2023/10/16 14:25:49;;;;;;;0.85;0.65;;;11.90;99.90;;;;;;4997510;28;20088;-61
2023/10/16 14:28:25;;;;;;;1.17;0.70;;;12.00;99.90;;;;;;4997341;28;20619;-60
2023/10/16 14:30:55;;;;;;;2.45;0.50;;;12.00;99.90;;;;;;4997459;28;20034;-62
2023/10/16 14:33:29;;;;;;;1.45;0.80;;;11.80;99.90;;;;;;4997913;28;20034;-61
2023/10/16 14:35:56;;;;;;;1.95;0.75;;;11.80;99.90;;;;;;4996132;28;20132;-60
2023/10/16 14:38:23;;;;;;;1.65;0.73;;;11.70;99.90;;;;;;4997795;28;20042;-60
2023/10/16 14:40:48;;;;;;;1.50;0.90;;;11.60;99.90;;;;;;4997060;28;20040;-60
2023/10/16 14:43:17;;;;;;;1.83;1.10;;;11.60;99.90;;;;;;4996376;28;20038;-60
2023/10/16 14:45:49;;;;;;;2.88;0.98;;;11.50;99.90;;;;;;4997275;28;20027;-59
2023/10/16 14:48:18;;;;;;;2.33;1.10;;;11.40;99.90;;;;;;4995483;28;20036;-61
2023/10/16 14:50:45;;;;;;;2.42;0.95;;;11.30;99.90;;;;;;4995548;28;20497;-60
2023/10/16 14:53:11;;;;;;;3.15;1.30;;;11.10;99.90;;;;;;4998243;28;20409;-59
2023/10/16 14:55:37;;;;;;;2.78;1.10;;;10.80;99.90;;;;;;4999504;28;20082;-61